sensor_id;sensor_type;location;lat;lon;timestamp;P1;durP1;ratioP1;P2;durP2;ratioP2
77430;SDS011;66498;48.564;19.272;2023-05-10T00:00:52;9.57;;;6.55;;
77430;SDS011;66498;48.564;19.272;2023-05-10T00:03:18;8.10;;;6.15;;
77430;SDS011;66498;48.564;19.272;2023-05-10T00:05:43;7.85;;;6.10;;
77430;SDS011;66498;48.564;19.272;2023-05-10T00:08:09;8.95;;;6.63;;
77430;SDS011;66498;48.564;19.272;2023-05-10T00:10:34;8.95;;;6.60;;
77430;SDS011;66498;48.564;19.272;2023-05-10T00:13:01;10.32;;;6.57;;
77430;SDS011;66498;48.564;19.272;2023-05-10T00:15:26;9.48;;;6.63;;
77430;SDS011;66498;48.564;19.272;2023-05-10T00:17:52;10.88;;;7.47;;
77430;SDS011;66498;48.564;19.272;2023-05-10T00:20:17;8.45;;;6.63;;
77430;SDS011;66498;48.564;19.272;2023-05-10T00:22:43;9.70;;;6.85;;
77430;SDS011;66498;48.564;19.272;2023-05-10T00:25:08;9.70;;;6.28;;
77430;SDS011;66498;48.564;19.272;2023-05-10T00:27:35;8.18;;;6.53;;
77430;SDS011;66498;48.564;19.272;2023-05-10T00:30:00;14.15;;;6.45;;
77430;SDS011;66498;48.564;19.272;2023-05-10T00:32:27;9.32;;;6.10;;
77430;SDS011;66498;48.564;19.272;2023-05-10T00:34:53;9.93;;;6.28;;
77430;SDS011;66498;48.564;19.272;2023-05-10T00:37:18;8.75;;;5.93;;
77430;SDS011;66498;48.564;19.272;2023-05-10T00:39:44;9.25;;;6.82;;
77430;SDS011;66498;48.564;19.272;2023-05-10T00:42:09;9.25;;;6.70;;
77430;SDS011;66498;48.564;19.272;2023-05-10T00:44:35;10.07;;;7.22;;
77430;SDS011;66498;48.564;19.272;2023-05-10T00:47:00;10.32;;;7.20;;
77430;SDS011;66498;48.564;19.272;2023-05-10T00:49:26;10.98;;;7.32;;
77430;SDS011;66498;48.564;19.272;2023-05-10T00:51:52;11.43;;;7.35;;
77430;SDS011;66498;48.564;19.272;2023-05-10T00:54:18;11.95;;;7.70;;
77430;SDS011;66498;48.564;19.272;2023-05-10T00:56:43;9.38;;;7.30;;
77430;SDS011;66498;48.564;19.272;2023-05-10T00:59:14;10.95;;;7.10;;
77430;SDS011;66498;48.564;19.272;2023-05-10T01:01:41;9.77;;;7.00;;
77430;SDS011;66498;48.564;19.272;2023-05-10T01:04:08;10.70;;;7.28;;
77430;SDS011;66498;48.564;19.272;2023-05-10T01:06:36;10.95;;;7.40;;
77430;SDS011;66498;48.564;19.272;2023-05-10T01:09:01;10.00;;;7.57;;
77430;SDS011;66498;48.564;19.272;2023-05-10T01:11:27;10.60;;;6.55;;
77430;SDS011;66498;48.564;19.272;2023-05-10T01:13:55;10.73;;;6.80;;
77430;SDS011;66498;48.564;19.272;2023-05-10T01:16:23;9.52;;;6.75;;
77430;SDS011;66498;48.564;19.272;2023-05-10T01:18:50;8.68;;;6.47;;
77430;SDS011;66498;48.564;19.272;2023-05-10T01:34:49;9.80;;;7.50;;
77430;SDS011;66498;48.564;19.272;2023-05-10T01:37:36;12.60;;;7.40;;
77430;SDS011;66498;48.564;19.272;2023-05-10T01:42:48;8.73;;;7.05;;
77430;SDS011;66498;48.564;19.272;2023-05-10T01:48:10;11.45;;;6.95;;
77430;SDS011;66498;48.564;19.272;2023-05-10T01:50:38;10.75;;;6.68;;
77430;SDS011;66498;48.564;19.272;2023-05-10T01:53:09;12.95;;;7.95;;
77430;SDS011;66498;48.564;19.272;2023-05-10T01:55:40;12.18;;;8.50;;
77430;SDS011;66498;48.564;19.272;2023-05-10T01:58:13;11.07;;;8.18;;
77430;SDS011;66498;48.564;19.272;2023-05-10T02:00:44;10.07;;;7.43;;
77430;SDS011;66498;48.564;19.272;2023-05-10T02:03:11;10.63;;;7.70;;
77430;SDS011;66498;48.564;19.272;2023-05-10T02:05:38;9.90;;;7.60;;
77430;SDS011;66498;48.564;19.272;2023-05-10T02:08:06;10.70;;;7.30;;
77430;SDS011;66498;48.564;19.272;2023-05-10T02:10:34;10.27;;;7.43;;
77430;SDS011;66498;48.564;19.272;2023-05-10T02:13:00;9.95;;;7.30;;
77430;SDS011;66498;48.564;19.272;2023-05-10T02:15:27;9.93;;;6.82;;
77430;SDS011;66498;48.564;19.272;2023-05-10T02:17:57;9.90;;;6.88;;
77430;SDS011;66498;48.564;19.272;2023-05-10T02:20:25;10.00;;;6.53;;
77430;SDS011;66498;48.564;19.272;2023-05-10T02:22:54;12.05;;;7.85;;
77430;SDS011;66498;48.564;19.272;2023-05-10T02:25:23;11.93;;;8.60;;
77430;SDS011;66498;48.564;19.272;2023-05-10T02:27:49;14.43;;;8.95;;
77430;SDS011;66498;48.564;19.272;2023-05-10T02:30:19;12.88;;;8.32;;
77430;SDS011;66498;48.564;19.272;2023-05-10T02:32:45;13.63;;;8.15;;
77430;SDS011;66498;48.564;19.272;2023-05-10T02:35:13;12.80;;;8.30;;
77430;SDS011;66498;48.564;19.272;2023-05-10T02:37:40;11.38;;;8.25;;
77430;SDS011;66498;48.564;19.272;2023-05-10T02:40:07;13.65;;;8.57;;
77430;SDS011;66498;48.564;19.272;2023-05-10T02:42:35;11.40;;;7.55;;
77430;SDS011;66498;48.564;19.272;2023-05-10T02:45:13;10.15;;;7.55;;
77430;SDS011;66498;48.564;19.272;2023-05-10T02:47:42;11.95;;;8.38;;
77430;SDS011;66498;48.564;19.272;2023-05-10T02:50:08;11.95;;;8.55;;
77430;SDS011;66498;48.564;19.272;2023-05-10T02:53:09;12.43;;;8.40;;
77430;SDS011;66498;48.564;19.272;2023-05-10T02:55:31;13.27;;;8.95;;
77430;SDS011;66498;48.564;19.272;2023-05-10T02:58:01;12.40;;;8.27;;
77430;SDS011;66498;48.564;19.272;2023-05-10T03:00:27;16.17;;;10.38;;
77430;SDS011;66498;48.564;19.272;2023-05-10T03:02:53;13.18;;;9.35;;
77430;SDS011;66498;48.564;19.272;2023-05-10T03:05:19;15.30;;;9.50;;
77430;SDS011;66498;48.564;19.272;2023-05-10T03:07:45;14.52;;;9.52;;
77430;SDS011;66498;48.564;19.272;2023-05-10T03:10:12;12.63;;;9.07;;
77430;SDS011;66498;48.564;19.272;2023-05-10T03:15:36;13.40;;;9.75;;
77430;SDS011;66498;48.564;19.272;2023-05-10T03:18:11;14.38;;;9.80;;
77430;SDS011;66498;48.564;19.272;2023-05-10T03:20:46;13.47;;;9.23;;
77430;SDS011;66498;48.564;19.272;2023-05-10T03:23:21;14.10;;;9.93;;
77430;SDS011;66498;48.564;19.272;2023-05-10T03:25:52;14.07;;;9.32;;
77430;SDS011;66498;48.564;19.272;2023-05-10T03:28:18;19.52;;;9.88;;
77430;SDS011;66498;48.564;19.272;2023-05-10T03:30:45;14.27;;;9.45;;
77430;SDS011;66498;48.564;19.272;2023-05-10T03:33:11;12.18;;;8.95;;
77430;SDS011;66498;48.564;19.272;2023-05-10T03:35:38;13.55;;;8.90;;
77430;SDS011;66498;48.564;19.272;2023-05-10T03:38:04;12.57;;;9.57;;
77430;SDS011;66498;48.564;19.272;2023-05-10T03:40:29;16.63;;;10.15;;
77430;SDS011;66498;48.564;19.272;2023-05-10T03:42:57;14.38;;;10.18;;
77430;SDS011;66498;48.564;19.272;2023-05-10T03:45:23;14.02;;;7.72;;
77430;SDS011;66498;48.564;19.272;2023-05-10T03:47:48;12.10;;;8.15;;
77430;SDS011;66498;48.564;19.272;2023-05-10T03:50:14;10.90;;;8.27;;
77430;SDS011;66498;48.564;19.272;2023-05-10T03:52:39;13.02;;;9.98;;
77430;SDS011;66498;48.564;19.272;2023-05-10T03:55:05;15.25;;;9.95;;
77430;SDS011;66498;48.564;19.272;2023-05-10T03:57:31;16.17;;;9.63;;
77430;SDS011;66498;48.564;19.272;2023-05-10T03:59:57;13.35;;;9.80;;
77430;SDS011;66498;48.564;19.272;2023-05-10T04:02:22;14.38;;;9.60;;
77430;SDS011;66498;48.564;19.272;2023-05-10T04:04:48;12.07;;;8.38;;
77430;SDS011;66498;48.564;19.272;2023-05-10T04:07:13;12.93;;;8.63;;
77430;SDS011;66498;48.564;19.272;2023-05-10T04:09:40;14.15;;;9.45;;
77430;SDS011;66498;48.564;19.272;2023-05-10T04:12:06;13.38;;;8.63;;
77430;SDS011;66498;48.564;19.272;2023-05-10T04:14:32;11.48;;;8.25;;
77430;SDS011;66498;48.564;19.272;2023-05-10T04:16:57;10.63;;;6.50;;
77430;SDS011;66498;48.564;19.272;2023-05-10T04:19:23;11.88;;;7.47;;
77430;SDS011;66498;48.564;19.272;2023-05-10T04:21:48;12.23;;;8.07;;
77430;SDS011;66498;48.564;19.272;2023-05-10T04:24:14;12.30;;;7.25;;
77430;SDS011;66498;48.564;19.272;2023-05-10T04:26:39;11.00;;;7.72;;
77430;SDS011;66498;48.564;19.272;2023-05-10T04:29:05;11.10;;;7.00;;
77430;SDS011;66498;48.564;19.272;2023-05-10T04:31:31;10.15;;;6.70;;
77430;SDS011;66498;48.564;19.272;2023-05-10T04:33:56;7.88;;;6.47;;
77430;SDS011;66498;48.564;19.272;2023-05-10T04:36:22;8.77;;;5.65;;
77430;SDS011;66498;48.564;19.272;2023-05-10T04:38:48;8.32;;;5.40;;
77430;SDS011;66498;48.564;19.272;2023-05-10T04:41:14;6.95;;;5.13;;
77430;SDS011;66498;48.564;19.272;2023-05-10T04:43:41;8.43;;;5.70;;
77430;SDS011;66498;48.564;19.272;2023-05-10T04:46:07;7.07;;;5.00;;
77430;SDS011;66498;48.564;19.272;2023-05-10T04:48:33;8.20;;;5.35;;
77430;SDS011;66498;48.564;19.272;2023-05-10T04:50:58;9.38;;;5.18;;
77430;SDS011;66498;48.564;19.272;2023-05-10T04:53:24;6.65;;;4.78;;
77430;SDS011;66498;48.564;19.272;2023-05-10T04:55:50;7.22;;;4.75;;
77430;SDS011;66498;48.564;19.272;2023-05-10T04:58:15;10.52;;;5.10;;
77430;SDS011;66498;48.564;19.272;2023-05-10T05:00:41;7.70;;;5.05;;
77430;SDS011;66498;48.564;19.272;2023-05-10T05:03:07;6.25;;;5.10;;
77430;SDS011;66498;48.564;19.272;2023-05-10T05:05:32;6.78;;;5.00;;
77430;SDS011;66498;48.564;19.272;2023-05-10T05:07:58;7.45;;;4.70;;
77430;SDS011;66498;48.564;19.272;2023-05-10T05:10:23;9.40;;;5.10;;
77430;SDS011;66498;48.564;19.272;2023-05-10T05:12:49;7.75;;;4.68;;
77430;SDS011;66498;48.564;19.272;2023-05-10T05:15:14;6.82;;;4.82;;
77430;SDS011;66498;48.564;19.272;2023-05-10T05:17:41;7.78;;;4.25;;
77430;SDS011;66498;48.564;19.272;2023-05-10T05:20:07;7.13;;;4.82;;
77430;SDS011;66498;48.564;19.272;2023-05-10T05:22:33;7.80;;;4.78;;
77430;SDS011;66498;48.564;19.272;2023-05-10T05:25:00;7.10;;;4.60;;
77430;SDS011;66498;48.564;19.272;2023-05-10T05:27:27;6.63;;;4.68;;
77430;SDS011;66498;48.564;19.272;2023-05-10T05:29:53;6.95;;;4.90;;
77430;SDS011;66498;48.564;19.272;2023-05-10T05:32:19;6.55;;;4.45;;
77430;SDS011;66498;48.564;19.272;2023-05-10T05:34:45;6.97;;;4.90;;
77430;SDS011;66498;48.564;19.272;2023-05-10T05:37:14;6.28;;;4.63;;
77430;SDS011;66498;48.564;19.272;2023-05-10T05:39:40;7.18;;;4.50;;
77430;SDS011;66498;48.564;19.272;2023-05-10T05:42:06;7.30;;;4.78;;
77430;SDS011;66498;48.564;19.272;2023-05-10T05:44:32;9.07;;;4.80;;
77430;SDS011;66498;48.564;19.272;2023-05-10T05:46:57;5.70;;;4.60;;
77430;SDS011;66498;48.564;19.272;2023-05-10T05:49:22;7.90;;;4.45;;
77430;SDS011;66498;48.564;19.272;2023-05-10T05:51:48;5.78;;;4.38;;
77430;SDS011;66498;48.564;19.272;2023-05-10T05:54:15;8.80;;;5.10;;
77430;SDS011;66498;48.564;19.272;2023-05-10T05:56:41;8.13;;;5.05;;
77430;SDS011;66498;48.564;19.272;2023-05-10T05:59:06;7.90;;;5.00;;
77430;SDS011;66498;48.564;19.272;2023-05-10T06:01:32;9.52;;;5.10;;
77430;SDS011;66498;48.564;19.272;2023-05-10T06:03:57;8.00;;;5.13;;
77430;SDS011;66498;48.564;19.272;2023-05-10T06:06:23;7.20;;;5.13;;
77430;SDS011;66498;48.564;19.272;2023-05-10T06:08:48;9.15;;;4.90;;
77430;SDS011;66498;48.564;19.272;2023-05-10T06:11:14;6.63;;;5.28;;
77430;SDS011;66498;48.564;19.272;2023-05-10T06:13:40;6.05;;;4.75;;
77430;SDS011;66498;48.564;19.272;2023-05-10T06:16:07;7.90;;;4.18;;
77430;SDS011;66498;48.564;19.272;2023-05-10T06:18:32;6.30;;;4.53;;
77430;SDS011;66498;48.564;19.272;2023-05-10T06:20:58;7.70;;;4.65;;
77430;SDS011;66498;48.564;19.272;2023-05-10T06:23:24;7.57;;;4.88;;
77430;SDS011;66498;48.564;19.272;2023-05-10T06:25:50;9.23;;;5.00;;
77430;SDS011;66498;48.564;19.272;2023-05-10T06:28:16;7.03;;;4.85;;
77430;SDS011;66498;48.564;19.272;2023-05-10T06:30:42;7.32;;;4.53;;
77430;SDS011;66498;48.564;19.272;2023-05-10T06:33:07;7.28;;;4.43;;
77430;SDS011;66498;48.564;19.272;2023-05-10T06:35:33;7.72;;;4.65;;
77430;SDS011;66498;48.564;19.272;2023-05-10T06:37:59;6.65;;;4.13;;
77430;SDS011;66498;48.564;19.272;2023-05-10T06:40:24;5.90;;;4.63;;
77430;SDS011;66498;48.564;19.272;2023-05-10T06:42:50;7.22;;;4.35;;
77430;SDS011;66498;48.564;19.272;2023-05-10T06:45:16;6.85;;;4.60;;
77430;SDS011;66498;48.564;19.272;2023-05-10T06:47:42;7.53;;;4.60;;
77430;SDS011;66498;48.564;19.272;2023-05-10T06:50:08;7.70;;;5.05;;
77430;SDS011;66498;48.564;19.272;2023-05-10T06:52:36;7.15;;;5.13;;
77430;SDS011;66498;48.564;19.272;2023-05-10T06:55:02;8.10;;;4.80;;
77430;SDS011;66498;48.564;19.272;2023-05-10T06:57:28;7.13;;;5.00;;
77430;SDS011;66498;48.564;19.272;2023-05-10T06:59:54;6.45;;;5.00;;
77430;SDS011;66498;48.564;19.272;2023-05-10T07:02:21;6.90;;;5.05;;
77430;SDS011;66498;48.564;19.272;2023-05-10T07:04:47;6.90;;;5.20;;
77430;SDS011;66498;48.564;19.272;2023-05-10T07:07:13;17.67;;;9.63;;
77430;SDS011;66498;48.564;19.272;2023-05-10T07:09:40;12.68;;;7.78;;
77430;SDS011;66498;48.564;19.272;2023-05-10T07:12:05;15.73;;;8.05;;
77430;SDS011;66498;48.564;19.272;2023-05-10T07:14:31;12.55;;;7.50;;
77430;SDS011;66498;48.564;19.272;2023-05-10T07:16:58;8.20;;;6.28;;
77430;SDS011;66498;48.564;19.272;2023-05-10T07:19:23;7.75;;;5.32;;
77430;SDS011;66498;48.564;19.272;2023-05-10T07:21:49;6.90;;;5.00;;
77430;SDS011;66498;48.564;19.272;2023-05-10T07:24:15;8.45;;;5.13;;
77430;SDS011;66498;48.564;19.272;2023-05-10T07:26:41;6.93;;;4.57;;
77430;SDS011;66498;48.564;19.272;2023-05-10T07:29:07;5.95;;;4.82;;
77430;SDS011;66498;48.564;19.272;2023-05-10T07:31:32;7.25;;;4.82;;
77430;SDS011;66498;48.564;19.272;2023-05-10T07:33:58;8.13;;;5.05;;
77430;SDS011;66498;48.564;19.272;2023-05-10T07:36:23;6.75;;;4.90;;
77430;SDS011;66498;48.564;19.272;2023-05-10T07:38:49;8.23;;;4.80;;
77430;SDS011;66498;48.564;19.272;2023-05-10T07:41:14;8.02;;;5.10;;
77430;SDS011;66498;48.564;19.272;2023-05-10T07:43:40;6.72;;;4.82;;
77430;SDS011;66498;48.564;19.272;2023-05-10T07:46:06;8.50;;;5.05;;
77430;SDS011;66498;48.564;19.272;2023-05-10T07:48:31;8.93;;;5.80;;
77430;SDS011;66498;48.564;19.272;2023-05-10T07:50:57;8.90;;;5.95;;
77430;SDS011;66498;48.564;19.272;2023-05-10T07:53:22;16.15;;;8.18;;
77430;SDS011;66498;48.564;19.272;2023-05-10T07:55:51;6.90;;;5.47;;
77430;SDS011;66498;48.564;19.272;2023-05-10T07:58:19;6.65;;;5.03;;
77430;SDS011;66498;48.564;19.272;2023-05-10T08:00:44;6.97;;;5.10;;
77430;SDS011;66498;48.564;19.272;2023-05-10T08:03:10;8.00;;;5.00;;
77430;SDS011;66498;48.564;19.272;2023-05-10T08:05:36;6.80;;;4.90;;
77430;SDS011;66498;48.564;19.272;2023-05-10T08:08:01;7.60;;;5.10;;
77430;SDS011;66498;48.564;19.272;2023-05-10T08:10:27;6.15;;;4.80;;
77430;SDS011;66498;48.564;19.272;2023-05-10T08:12:52;6.40;;;4.88;;
77430;SDS011;66498;48.564;19.272;2023-05-10T08:15:18;7.63;;;4.93;;
77430;SDS011;66498;48.564;19.272;2023-05-10T08:17:43;8.32;;;5.13;;
77430;SDS011;66498;48.564;19.272;2023-05-10T08:20:08;11.05;;;5.55;;
77430;SDS011;66498;48.564;19.272;2023-05-10T08:22:34;8.93;;;5.82;;
77430;SDS011;66498;48.564;19.272;2023-05-10T08:24:59;11.13;;;5.80;;
77430;SDS011;66498;48.564;19.272;2023-05-10T08:27:25;7.07;;;5.35;;
77430;SDS011;66498;48.564;19.272;2023-05-10T08:29:50;7.03;;;5.25;;
77430;SDS011;66498;48.564;19.272;2023-05-10T08:32:16;8.40;;;5.15;;
77430;SDS011;66498;48.564;19.272;2023-05-10T08:34:42;5.80;;;4.55;;
77430;SDS011;66498;48.564;19.272;2023-05-10T08:37:08;11.07;;;5.80;;
77430;SDS011;66498;48.564;19.272;2023-05-10T08:39:36;7.45;;;4.90;;
77430;SDS011;66498;48.564;19.272;2023-05-10T08:42:04;6.78;;;4.50;;
77430;SDS011;66498;48.564;19.272;2023-05-10T08:44:34;7.43;;;4.65;;
77430;SDS011;66498;48.564;19.272;2023-05-10T08:47:02;6.65;;;4.53;;
77430;SDS011;66498;48.564;19.272;2023-05-10T08:49:34;11.25;;;4.65;;
77430;SDS011;66498;48.564;19.272;2023-05-10T08:52:00;16.15;;;5.47;;
77430;SDS011;66498;48.564;19.272;2023-05-10T08:54:28;7.30;;;4.50;;
77430;SDS011;66498;48.564;19.272;2023-05-10T08:56:56;17.88;;;5.32;;
77430;SDS011;66498;48.564;19.272;2023-05-10T08:59:22;8.27;;;5.00;;
77430;SDS011;66498;48.564;19.272;2023-05-10T09:01:48;6.93;;;4.90;;
77430;SDS011;66498;48.564;19.272;2023-05-10T09:04:15;9.20;;;4.80;;
77430;SDS011;66498;48.564;19.272;2023-05-10T09:06:41;7.90;;;4.78;;
77430;SDS011;66498;48.564;19.272;2023-05-10T09:09:06;8.80;;;5.15;;
77430;SDS011;66498;48.564;19.272;2023-05-10T09:11:32;7.30;;;5.00;;
77430;SDS011;66498;48.564;19.272;2023-05-10T09:13:58;6.03;;;4.68;;
77430;SDS011;66498;48.564;19.272;2023-05-10T09:16:23;7.55;;;5.05;;
77430;SDS011;66498;48.564;19.272;2023-05-10T09:18:49;5.80;;;4.40;;
77430;SDS011;66498;48.564;19.272;2023-05-10T09:21:14;8.68;;;4.57;;
77430;SDS011;66498;48.564;19.272;2023-05-10T09:23:44;5.45;;;4.45;;
77430;SDS011;66498;48.564;19.272;2023-05-10T09:26:11;6.88;;;4.68;;
77430;SDS011;66498;48.564;19.272;2023-05-10T09:28:50;7.15;;;4.90;;
77430;SDS011;66498;48.564;19.272;2023-05-10T09:31:21;5.90;;;4.35;;
77430;SDS011;66498;48.564;19.272;2023-05-10T09:33:47;6.70;;;4.63;;
77430;SDS011;66498;48.564;19.272;2023-05-10T09:36:14;8.75;;;4.63;;
77430;SDS011;66498;48.564;19.272;2023-05-10T09:41:20;8.38;;;4.70;;
77430;SDS011;66498;48.564;19.272;2023-05-10T09:43:46;7.25;;;4.68;;
77430;SDS011;66498;48.564;19.272;2023-05-10T09:46:12;6.15;;;4.82;;
77430;SDS011;66498;48.564;19.272;2023-05-10T09:48:40;6.68;;;4.80;;
77430;SDS011;66498;48.564;19.272;2023-05-10T09:51:18;8.35;;;4.45;;
77430;SDS011;66498;48.564;19.272;2023-05-10T09:54:11;7.80;;;4.68;;
77430;SDS011;66498;48.564;19.272;2023-05-10T09:56:41;5.40;;;3.95;;
77430;SDS011;66498;48.564;19.272;2023-05-10T09:59:09;6.05;;;4.72;;
77430;SDS011;66498;48.564;19.272;2023-05-10T10:01:36;6.38;;;3.85;;
77430;SDS011;66498;48.564;19.272;2023-05-10T10:04:05;4.10;;;3.40;;
77430;SDS011;66498;48.564;19.272;2023-05-10T10:06:39;6.22;;;3.60;;
77430;SDS011;66498;48.564;19.272;2023-05-10T10:09:05;6.55;;;4.38;;
77430;SDS011;66498;48.564;19.272;2023-05-10T10:11:38;7.50;;;4.05;;
77430;SDS011;66498;48.564;19.272;2023-05-10T10:14:04;5.28;;;4.22;;
77430;SDS011;66498;48.564;19.272;2023-05-10T10:16:30;7.30;;;4.57;;
77430;SDS011;66498;48.564;19.272;2023-05-10T10:18:57;6.82;;;4.28;;
77430;SDS011;66498;48.564;19.272;2023-05-10T10:21:23;5.28;;;4.00;;
77430;SDS011;66498;48.564;19.272;2023-05-10T10:23:49;6.47;;;4.00;;
77430;SDS011;66498;48.564;19.272;2023-05-10T10:26:17;4.93;;;3.80;;
77430;SDS011;66498;48.564;19.272;2023-05-10T10:34:10;5.30;;;3.42;;
77430;SDS011;66498;48.564;19.272;2023-05-10T10:36:43;4.78;;;3.40;;
77430;SDS011;66498;48.564;19.272;2023-05-10T10:39:10;5.65;;;3.60;;
77430;SDS011;66498;48.564;19.272;2023-05-10T10:41:41;5.30;;;3.70;;
77430;SDS011;66498;48.564;19.272;2023-05-10T10:47:02;6.43;;;3.47;;
77430;SDS011;66498;48.564;19.272;2023-05-10T10:49:37;4.35;;;3.28;;
77430;SDS011;66498;48.564;19.272;2023-05-10T10:54:52;4.85;;;3.50;;
77430;SDS011;66498;48.564;19.272;2023-05-10T10:57:18;5.00;;;3.67;;
77430;SDS011;66498;48.564;19.272;2023-05-10T10:59:48;5.50;;;3.10;;
77430;SDS011;66498;48.564;19.272;2023-05-10T11:02:57;5.13;;;3.35;;
77430;SDS011;66498;48.564;19.272;2023-05-10T11:07:54;4.60;;;3.20;;
77430;SDS011;66498;48.564;19.272;2023-05-10T11:10:21;4.78;;;3.20;;
77430;SDS011;66498;48.564;19.272;2023-05-10T11:15:32;4.55;;;3.20;;
77430;SDS011;66498;48.564;19.272;2023-05-10T11:18:20;5.20;;;3.17;;
77430;SDS011;66498;48.564;19.272;2023-05-10T11:20:50;4.53;;;3.33;;
77430;SDS011;66498;48.564;19.272;2023-05-10T11:23:16;5.07;;;3.30;;
77430;SDS011;66498;48.564;19.272;2023-05-10T11:25:43;3.63;;;2.97;;
77430;SDS011;66498;48.564;19.272;2023-05-10T11:28:09;6.40;;;3.25;;
77430;SDS011;66498;48.564;19.272;2023-05-10T11:30:36;4.07;;;3.30;;
77430;SDS011;66498;48.564;19.272;2023-05-10T11:33:04;5.07;;;3.22;;
77430;SDS011;66498;48.564;19.272;2023-05-10T11:35:31;3.90;;;2.72;;
77430;SDS011;66498;48.564;19.272;2023-05-10T11:38:04;3.35;;;3.05;;
77430;SDS011;66498;48.564;19.272;2023-05-10T11:40:31;6.50;;;3.03;;
77430;SDS011;66498;48.564;19.272;2023-05-10T11:42:56;4.55;;;3.33;;
77430;SDS011;66498;48.564;19.272;2023-05-10T11:45:23;6.68;;;3.42;;
77430;SDS011;66498;48.564;19.272;2023-05-10T11:47:49;6.38;;;3.28;;
77430;SDS011;66498;48.564;19.272;2023-05-10T11:50:15;5.63;;;3.03;;
77430;SDS011;66498;48.564;19.272;2023-05-10T11:52:40;4.15;;;2.85;;
77430;SDS011;66498;48.564;19.272;2023-05-10T11:55:06;4.05;;;2.90;;
77430;SDS011;66498;48.564;19.272;2023-05-10T11:57:32;2.97;;;2.67;;
77430;SDS011;66498;48.564;19.272;2023-05-10T11:59:58;6.47;;;2.70;;
77430;SDS011;66498;48.564;19.272;2023-05-10T12:02:24;4.32;;;2.60;;
77430;SDS011;66498;48.564;19.272;2023-05-10T12:04:50;3.72;;;2.97;;
77430;SDS011;66498;48.564;19.272;2023-05-10T12:07:16;3.47;;;2.92;;
77430;SDS011;66498;48.564;19.272;2023-05-10T12:09:43;5.80;;;2.70;;
77430;SDS011;66498;48.564;19.272;2023-05-10T12:12:10;3.38;;;2.53;;
77430;SDS011;66498;48.564;19.272;2023-05-10T12:14:40;6.43;;;2.60;;
77430;SDS011;66498;48.564;19.272;2023-05-10T12:17:06;3.75;;;2.72;;
77430;SDS011;66498;48.564;19.272;2023-05-10T12:19:37;5.45;;;2.50;;
77430;SDS011;66498;48.564;19.272;2023-05-10T12:22:06;4.13;;;2.55;;
77430;SDS011;66498;48.564;19.272;2023-05-10T12:24:36;2.55;;;2.25;;
77430;SDS011;66498;48.564;19.272;2023-05-10T12:27:07;2.58;;;2.20;;
77430;SDS011;66498;48.564;19.272;2023-05-10T12:29:33;4.43;;;2.40;;
77430;SDS011;66498;48.564;19.272;2023-05-10T12:31:59;2.70;;;2.50;;
77430;SDS011;66498;48.564;19.272;2023-05-10T12:36:58;3.78;;;2.40;;
77430;SDS011;66498;48.564;19.272;2023-05-10T12:39:25;4.10;;;2.65;;
77430;SDS011;66498;48.564;19.272;2023-05-10T12:41:51;3.58;;;2.42;;
77430;SDS011;66498;48.564;19.272;2023-05-10T12:44:17;3.28;;;2.40;;
77430;SDS011;66498;48.564;19.272;2023-05-10T12:46:43;5.93;;;2.60;;
77430;SDS011;66498;48.564;19.272;2023-05-10T12:49:09;3.70;;;2.55;;
77430;SDS011;66498;48.564;19.272;2023-05-10T12:51:35;3.67;;;2.70;;
77430;SDS011;66498;48.564;19.272;2023-05-10T12:54:01;5.38;;;2.80;;
77430;SDS011;66498;48.564;19.272;2023-05-10T12:56:28;3.00;;;2.63;;
77430;SDS011;66498;48.564;19.272;2023-05-10T12:58:53;4.28;;;3.10;;
77430;SDS011;66498;48.564;19.272;2023-05-10T13:01:19;3.35;;;2.58;;
77430;SDS011;66498;48.564;19.272;2023-05-10T13:03:44;5.88;;;3.20;;
77430;SDS011;66498;48.564;19.272;2023-05-10T13:06:10;3.83;;;2.85;;
77430;SDS011;66498;48.564;19.272;2023-05-10T13:08:35;6.50;;;2.92;;
77430;SDS011;66498;48.564;19.272;2023-05-10T13:11:01;5.05;;;2.80;;
77430;SDS011;66498;48.564;19.272;2023-05-10T13:13:27;4.30;;;3.03;;
77430;SDS011;66498;48.564;19.272;2023-05-10T13:15:53;3.97;;;2.83;;
77430;SDS011;66498;48.564;19.272;2023-05-10T13:18:18;3.08;;;2.72;;
77430;SDS011;66498;48.564;19.272;2023-05-10T13:20:44;3.50;;;2.55;;
77430;SDS011;66498;48.564;19.272;2023-05-10T13:23:10;4.65;;;2.80;;
77430;SDS011;66498;48.564;19.272;2023-05-10T13:25:35;2.97;;;2.42;;
77430;SDS011;66498;48.564;19.272;2023-05-10T13:28:01;2.92;;;2.20;;
77430;SDS011;66498;48.564;19.272;2023-05-10T13:30:27;3.22;;;2.50;;
77430;SDS011;66498;48.564;19.272;2023-05-10T13:32:53;2.88;;;2.10;;
77430;SDS011;66498;48.564;19.272;2023-05-10T13:35:19;7.88;;;2.80;;
77430;SDS011;66498;48.564;19.272;2023-05-10T13:37:45;3.53;;;2.78;;
77430;SDS011;66498;48.564;19.272;2023-05-10T13:40:10;2.83;;;2.53;;
77430;SDS011;66498;48.564;19.272;2023-05-10T13:42:36;4.45;;;3.05;;
77430;SDS011;66498;48.564;19.272;2023-05-10T13:45:02;7.32;;;4.38;;
77430;SDS011;66498;48.564;19.272;2023-05-10T13:47:28;4.38;;;2.40;;
77430;SDS011;66498;48.564;19.272;2023-05-10T13:49:54;2.95;;;2.50;;
77430;SDS011;66498;48.564;19.272;2023-05-10T13:52:19;5.72;;;2.45;;
77430;SDS011;66498;48.564;19.272;2023-05-10T13:54:45;6.63;;;3.67;;
77430;SDS011;66498;48.564;19.272;2023-05-10T13:57:11;3.97;;;2.55;;
77430;SDS011;66498;48.564;19.272;2023-05-10T13:59:38;4.80;;;2.55;;
77430;SDS011;66498;48.564;19.272;2023-05-10T14:02:04;4.10;;;3.08;;
77430;SDS011;66498;48.564;19.272;2023-05-10T14:04:30;5.40;;;3.40;;
77430;SDS011;66498;48.564;19.272;2023-05-10T14:06:56;7.28;;;4.38;;
77430;SDS011;66498;48.564;19.272;2023-05-10T14:09:22;4.13;;;3.28;;
77430;SDS011;66498;48.564;19.272;2023-05-10T14:11:47;6.82;;;3.85;;
77430;SDS011;66498;48.564;19.272;2023-05-10T14:14:13;4.45;;;3.75;;
77430;SDS011;66498;48.564;19.272;2023-05-10T14:17:02;4.45;;;3.92;;
77430;SDS011;66498;48.564;19.272;2023-05-10T14:20:11;5.88;;;4.03;;
77430;SDS011;66498;48.564;19.272;2023-05-10T14:22:59;5.60;;;3.90;;
77430;SDS011;66498;48.564;19.272;2023-05-10T14:25:28;6.22;;;4.03;;
77430;SDS011;66498;48.564;19.272;2023-05-10T14:28:05;5.32;;;4.10;;
77430;SDS011;66498;48.564;19.272;2023-05-10T14:30:57;4.57;;;3.70;;
77430;SDS011;66498;48.564;19.272;2023-05-10T14:33:24;5.93;;;3.97;;
77430;SDS011;66498;48.564;19.272;2023-05-10T14:35:49;6.75;;;4.40;;
77430;SDS011;66498;48.564;19.272;2023-05-10T14:38:15;6.32;;;4.25;;
77430;SDS011;66498;48.564;19.272;2023-05-10T14:40:41;6.03;;;4.22;;
77430;SDS011;66498;48.564;19.272;2023-05-10T14:43:08;5.43;;;3.90;;
77430;SDS011;66498;48.564;19.272;2023-05-10T14:45:34;5.95;;;4.05;;
77430;SDS011;66498;48.564;19.272;2023-05-10T14:47:59;5.47;;;3.75;;
77430;SDS011;66498;48.564;19.272;2023-05-10T14:50:26;4.68;;;3.88;;
77430;SDS011;66498;48.564;19.272;2023-05-10T14:52:51;6.70;;;4.85;;
77430;SDS011;66498;48.564;19.272;2023-05-10T14:55:17;5.28;;;3.97;;
77430;SDS011;66498;48.564;19.272;2023-05-10T14:57:42;11.13;;;6.63;;
77430;SDS011;66498;48.564;19.272;2023-05-10T15:00:09;5.93;;;4.20;;
77430;SDS011;66498;48.564;19.272;2023-05-10T15:02:35;6.65;;;3.88;;
77430;SDS011;66498;48.564;19.272;2023-05-10T15:05:01;4.82;;;3.63;;
77430;SDS011;66498;48.564;19.272;2023-05-10T15:07:27;4.60;;;3.90;;
77430;SDS011;66498;48.564;19.272;2023-05-10T15:09:53;5.20;;;3.67;;
77430;SDS011;66498;48.564;19.272;2023-05-10T15:12:19;6.97;;;3.78;;
77430;SDS011;66498;48.564;19.272;2023-05-10T15:14:45;5.15;;;3.70;;